createdAt,value
2023-01-23T00:03:34.205Z,20.08
2023-01-23T00:07:35.822Z,20.33
2023-01-23T00:11:37.459Z,19.98
2023-01-23T00:15:39.942Z,21.00
2023-01-23T00:19:41.737Z,20.23
2023-01-23T00:23:48.837Z,21.75
2023-01-23T00:27:50.513Z,20.20
2023-01-23T00:31:52.194Z,20.67
2023-01-23T00:35:55.124Z,20.85
2023-01-23T00:39:56.763Z,21.45
2023-01-23T00:43:58.482Z,20.48
2023-01-23T00:48:00.110Z,19.75
2023-01-23T00:52:01.965Z,21.75
2023-01-23T00:56:03.903Z,20.70
2023-01-23T01:00:06.462Z,20.35
2023-01-23T01:04:08.198Z,20.05
2023-01-23T01:08:10.190Z,21.48
2023-01-23T01:12:11.858Z,21.48
2023-01-23T01:16:13.730Z,22.00
2023-01-23T01:20:16.145Z,20.52
2023-01-23T01:24:17.823Z,20.80
2023-01-23T01:28:19.555Z,20.85
2023-01-23T01:32:21.185Z,20.23
2023-01-23T01:36:24.240Z,21.00
2023-01-23T01:40:31.544Z,20.88
2023-01-23T01:44:53.910Z,19.80
2023-01-23T01:49:01.398Z,19.58
2023-01-23T01:53:03.127Z,19.55
2023-01-23T01:57:14.196Z,18.87
2023-01-23T02:01:16.425Z,18.30
2023-01-23T02:05:43.852Z,18.83
2023-01-23T02:09:46.499Z,17.45
2023-01-23T02:13:48.267Z,18.02
2023-01-23T02:17:52.916Z,18.10
2023-01-23T02:22:07.527Z,17.33
2023-01-23T02:26:36.552Z,17.35
2023-01-23T02:30:40.148Z,17.50
2023-01-23T02:34:42.581Z,18.55
2023-01-23T02:39:02.587Z,18.65
2023-01-23T02:43:06.312Z,18.15
2023-01-23T02:47:12.209Z,18.25
2023-01-23T02:51:14.408Z,17.75
2023-01-23T02:55:16.485Z,16.50
2023-01-23T02:59:36.922Z,16.98
2023-01-23T03:03:41.514Z,16.70
2023-01-23T03:07:43.239Z,15.82
2023-01-23T03:11:46.400Z,16.95
2023-01-23T03:15:52.918Z,17.45
2023-01-23T03:19:57.460Z,17.48
2023-01-23T03:23:59.492Z,17.33
2023-01-23T03:28:01.198Z,17.55
2023-01-23T03:32:03.182Z,18.17
2023-01-23T03:36:08.171Z,17.98
2023-01-23T03:40:38.620Z,17.42
2023-01-23T03:44:40.324Z,18.27
2023-01-23T03:48:42.057Z,18.00
2023-01-23T03:52:43.723Z,18.10
2023-01-23T03:56:45.411Z,18.60
2023-01-23T04:00:47.106Z,17.75
2023-01-23T04:04:48.760Z,18.02
2023-01-23T04:08:50.418Z,18.48
2023-01-23T04:12:52.145Z,17.33
2023-01-23T04:16:53.845Z,19.62
2023-01-23T04:20:56.222Z,18.77
2023-01-23T04:24:57.860Z,19.35
2023-01-23T04:28:59.495Z,20.17
2023-01-23T04:33:01.209Z,19.95
2023-01-23T04:37:02.886Z,18.98
2023-01-23T04:41:04.790Z,20.95
2023-01-23T04:45:09.349Z,20.10
2023-01-23T04:49:11.086Z,19.67
2023-01-23T04:53:13.967Z,19.85
2023-01-23T04:57:15.632Z,19.95
2023-01-23T05:01:23.000Z,18.87
2023-01-23T05:05:26.329Z,19.60
2023-01-23T05:09:28.008Z,18.83
2023-01-23T05:13:29.715Z,18.35
2023-01-23T05:17:31.385Z,18.85
2023-01-23T05:21:33.080Z,17.10
2023-01-23T05:25:35.618Z,17.80
2023-01-23T05:29:37.271Z,17.65
2023-01-23T05:33:40.335Z,16.87
2023-01-23T05:37:42.096Z,15.52
2023-01-23T05:41:43.764Z,13.75
2023-01-23T05:45:45.550Z,14.15
2023-01-23T05:49:47.297Z,14.93
2023-01-23T05:53:49.156Z,16.20
2023-01-23T05:57:50.979Z,14.18
2023-01-23T06:01:52.630Z,15.35
2023-01-23T06:05:54.361Z,15.95
2023-01-23T06:09:55.977Z,15.50
2023-01-23T06:13:57.603Z,13.93
2023-01-23T06:17:59.235Z,14.25
2023-01-23T06:22:00.943Z,15.00
2023-01-23T06:26:03.426Z,15.27
2023-01-23T06:30:06.282Z,15.43
2023-01-23T06:34:08.306Z,15.82
2023-01-23T06:38:10.329Z,15.65
2023-01-23T06:42:11.977Z,16.75
2023-01-23T06:46:13.675Z,17.58
2023-01-23T06:50:16.715Z,16.02
2023-01-23T06:54:18.345Z,15.88
2023-01-23T06:58:20.312Z,16.15
2023-01-23T07:02:22.363Z,15.82
2023-01-23T07:06:24.304Z,16.20
2023-01-23T07:10:26.461Z,14.65
2023-01-23T07:14:28.631Z,15.82
2023-01-23T07:18:30.518Z,15.25
2023-01-23T07:22:32.272Z,15.75
2023-01-23T07:26:34.005Z,15.82
2023-01-23T07:30:35.717Z,16.40
2023-01-23T07:34:37.429Z,15.73
2023-01-23T07:38:39.142Z,17.15
2023-01-23T07:42:41.831Z,15.98
2023-01-23T07:46:44.527Z,15.85
2023-01-23T07:50:46.195Z,15.88
2023-01-23T07:54:47.844Z,14.75
2023-01-23T07:58:51.039Z,17.40
2023-01-23T08:02:52.767Z,16.70
2023-01-23T08:06:54.393Z,14.80
2023-01-23T08:10:56.040Z,15.02
2023-01-23T08:14:57.760Z,17.30
2023-01-23T08:18:59.621Z,17.65
2023-01-23T08:23:02.244Z,17.08
2023-01-23T08:27:04.068Z,16.73
2023-01-23T08:31:08.679Z,17.80
2023-01-23T08:35:10.811Z,16.70
2023-01-23T08:39:12.496Z,17.08
2023-01-23T08:43:14.852Z,17.62
2023-01-23T08:47:16.505Z,18.00
2023-01-23T08:51:18.903Z,16.37
2023-01-23T08:55:20.535Z,17.83
2023-01-23T08:59:22.680Z,18.33
2023-01-23T09:03:25.070Z,18.42
2023-01-23T09:07:26.705Z,16.00
2023-01-23T09:11:28.365Z,18.45
2023-01-23T09:15:30.191Z,17.33
2023-01-23T09:19:32.794Z,15.15
2023-01-23T09:23:34.801Z,15.95
2023-01-23T09:27:36.484Z,16.12
2023-01-23T09:31:38.259Z,15.10
2023-01-23T09:35:39.966Z,14.43
2023-01-23T09:39:44.778Z,14.35
2023-01-23T09:43:46.425Z,14.05
2023-01-23T09:47:55.735Z,13.98
2023-01-23T09:52:07.455Z,11.80
2023-01-23T09:56:35.110Z,11.35
2023-01-23T10:04:38.410Z,12.68
2023-01-23T10:08:46.284Z,12.20
2023-01-23T10:13:25.402Z,12.40
2023-01-23T10:17:52.455Z,12.05
2023-01-23T10:22:22.846Z,12.37
2023-01-23T10:26:31.651Z,11.95
2023-01-23T10:30:38.336Z,12.45
2023-01-23T10:35:12.441Z,12.20
2023-01-23T10:39:24.969Z,11.98
2023-01-23T10:43:27.329Z,12.77
2023-01-23T10:47:48.055Z,10.98
2023-01-23T10:51:53.721Z,12.32
2023-01-23T10:55:58.952Z,11.63
2023-01-23T11:00:08.212Z,12.65
2023-01-23T11:04:25.591Z,11.60
2023-01-23T11:12:33.226Z,11.93
2023-01-23T11:16:35.814Z,11.12
2023-01-23T11:20:40.891Z,10.95
2023-01-23T11:24:42.592Z,10.98
2023-01-23T11:28:49.660Z,10.93
2023-01-23T11:37:18.228Z,11.30
2023-01-23T11:41:22.332Z,10.43
2023-01-23T11:45:38.771Z,10.57
2023-01-23T11:50:05.338Z,10.60
2023-01-23T11:54:25.675Z,10.07
2023-01-23T11:58:58.660Z,10.05
2023-01-23T12:03:27.788Z,9.93
2023-01-23T12:07:53.925Z,9.93
2023-01-23T12:12:24.123Z,10.23
2023-01-23T12:16:48.382Z,10.13
2023-01-23T12:20:57.981Z,10.25
2023-01-23T12:25:35.310Z,8.70
2023-01-23T12:29:54.269Z,9.27
2023-01-23T12:34:14.927Z,9.48
2023-01-23T12:38:35.760Z,8.65
2023-01-23T12:43:11.741Z,8.77
2023-01-23T12:47:19.869Z,8.10
2023-01-23T12:51:26.786Z,7.53
2023-01-23T12:55:37.857Z,7.37
2023-01-23T13:00:03.866Z,7.47
2023-01-23T13:04:05.582Z,7.45
2023-01-23T13:08:29.087Z,7.28
2023-01-23T13:12:31.411Z,7.70
2023-01-23T13:16:33.243Z,8.15
2023-01-23T13:21:15.733Z,8.07
2023-01-23T13:25:19.874Z,7.57
2023-01-23T13:29:58.797Z,8.23
2023-01-23T13:34:15.020Z,7.75
2023-01-23T13:38:29.282Z,8.00
2023-01-23T13:42:34.636Z,7.85
2023-01-23T14:22:48.468Z,8.48
2023-01-23T14:26:53.035Z,9.13
2023-01-23T14:30:59.812Z,9.02
2023-01-23T14:35:01.482Z,8.70
2023-01-23T14:39:04.149Z,8.63
2023-01-23T14:43:08.227Z,8.80
2023-01-23T14:47:23.470Z,8.45
2023-01-23T14:51:26.838Z,8.20
2023-01-23T14:55:32.758Z,7.87
2023-01-23T14:59:36.638Z,8.50
2023-01-23T15:03:55.302Z,7.70
2023-01-23T15:08:03.517Z,7.82
2023-01-23T15:12:16.697Z,8.48
2023-01-23T15:16:38.747Z,6.78
2023-01-23T15:20:41.439Z,8.07
2023-01-23T15:24:43.152Z,6.82
2023-01-23T15:29:21.460Z,7.50
2023-01-23T15:33:31.957Z,6.12
2023-01-23T15:37:34.448Z,7.30
2023-01-23T15:41:49.357Z,7.53
2023-01-23T15:45:51.140Z,7.10
2023-01-23T15:49:53.518Z,7.22
2023-01-23T15:53:55.227Z,7.80
2023-01-23T15:57:56.979Z,7.93
2023-01-23T16:01:58.742Z,7.07
2023-01-23T16:06:00.425Z,8.20
2023-01-23T16:10:28.361Z,7.53
2023-01-23T16:14:29.956Z,8.02
2023-01-23T16:18:31.679Z,7.55
2023-01-23T16:22:35.104Z,7.43
2023-01-23T16:26:36.897Z,6.90
2023-01-23T16:30:38.788Z,7.85
2023-01-23T16:34:40.484Z,7.43
2023-01-23T16:38:50.403Z,7.28
2023-01-23T16:42:53.353Z,8.07
2023-01-23T16:46:55.114Z,7.85
2023-01-23T16:51:03.031Z,8.82
2023-01-23T16:55:17.770Z,8.80
2023-01-23T16:59:31.750Z,19.87
2023-01-23T17:03:36.815Z,11.12
2023-01-23T17:07:38.482Z,14.98
2023-01-23T17:11:42.897Z,10.57
2023-01-23T17:15:45.792Z,10.45
2023-01-23T17:19:47.508Z,10.35
2023-01-23T17:23:49.543Z,10.10
2023-01-23T17:28:10.962Z,10.60
2023-01-23T17:32:35.113Z,9.45
2023-01-23T17:36:37.104Z,10.25
2023-01-23T17:40:40.485Z,15.25
2023-01-23T17:44:42.145Z,11.18
2023-01-23T17:48:43.991Z,11.70
2023-01-23T17:52:46.594Z,11.90
2023-01-23T17:56:48.426Z,12.73
2023-01-23T18:00:53.241Z,13.43
2023-01-23T18:04:55.674Z,12.32
2023-01-23T18:08:57.312Z,12.18
2023-01-23T18:13:24.998Z,15.25
2023-01-23T18:21:38.828Z,13.07
2023-01-23T18:25:45.925Z,13.18
2023-01-23T18:30:08.743Z,12.18
2023-01-23T18:34:28.906Z,13.32
2023-01-23T18:39:01.063Z,11.60
2023-01-23T18:43:14.681Z,11.52
2023-01-23T18:47:16.603Z,11.02
2023-01-23T18:51:39.651Z,11.20
2023-01-23T18:56:14.135Z,12.30
2023-01-23T19:00:27.828Z,13.00
2023-01-23T19:04:47.005Z,11.85
2023-01-23T19:08:50.361Z,12.73
2023-01-23T19:13:21.269Z,11.95
2023-01-23T19:17:22.869Z,12.02
2023-01-23T19:21:28.087Z,12.93
2023-01-23T19:25:30.126Z,12.57
2023-01-23T19:29:31.961Z,12.70
2023-01-23T19:33:33.584Z,11.60
2023-01-23T19:37:39.667Z,13.38
2023-01-23T19:41:49.182Z,11.73
2023-01-23T19:45:50.841Z,12.60
2023-01-23T19:49:52.535Z,11.82
2023-01-23T19:53:54.961Z,12.10
2023-01-23T19:57:57.140Z,14.15
2023-01-23T20:01:58.915Z,13.85
2023-01-23T20:06:00.700Z,13.15
2023-01-23T20:10:02.937Z,11.00
2023-01-23T20:14:04.596Z,9.57
2023-01-23T20:18:06.288Z,10.65
2023-01-23T20:22:07.960Z,11.82
2023-01-23T20:26:10.045Z,12.52
2023-01-23T20:30:17.147Z,11.43
2023-01-23T20:34:18.806Z,11.57
2023-01-23T20:38:21.266Z,12.23
2023-01-23T20:42:23.356Z,12.00
2023-01-23T20:46:26.692Z,18.30
2023-01-23T20:50:28.417Z,12.63
2023-01-23T20:54:30.071Z,11.90
2023-01-23T20:58:51.628Z,11.45
2023-01-23T21:02:53.539Z,10.65
2023-01-23T21:06:55.304Z,11.35
2023-01-23T21:10:56.950Z,10.02
2023-01-23T21:14:58.997Z,9.93
2023-01-23T21:19:01.026Z,9.77
2023-01-23T21:23:02.677Z,9.57
2023-01-23T21:27:05.744Z,10.93
2023-01-23T21:31:14.818Z,9.23
2023-01-23T21:35:16.540Z,9.52
2023-01-23T21:39:19.041Z,9.75
2023-01-23T21:43:20.709Z,8.82
2023-01-23T21:47:22.921Z,8.32
2023-01-23T21:51:25.278Z,8.68
2023-01-23T21:55:26.964Z,8.43
2023-01-23T21:59:28.641Z,8.10
2023-01-23T22:03:35.547Z,9.32
2023-01-23T22:07:37.236Z,9.05
2023-01-23T22:11:38.884Z,9.15
2023-01-23T22:15:40.621Z,8.45
2023-01-23T22:19:43.342Z,9.95
2023-01-23T22:23:45.134Z,9.30
2023-01-23T22:27:46.833Z,8.80
2023-01-23T22:31:48.774Z,8.90
2023-01-23T22:35:50.572Z,8.93
2023-01-23T22:39:52.217Z,10.50
2023-01-23T22:43:55.162Z,9.30
2023-01-23T22:47:57.248Z,9.45
2023-01-23T22:51:58.883Z,9.40
2023-01-23T22:56:05.069Z,10.27
2023-01-23T23:00:12.488Z,10.17
2023-01-23T23:04:14.185Z,10.32
2023-01-23T23:08:15.824Z,10.93
2023-01-23T23:12:17.485Z,9.75
2023-01-23T23:16:24.956Z,10.25
2023-01-23T23:20:26.922Z,10.23
2023-01-23T23:24:28.587Z,9.68
2023-01-23T23:28:30.624Z,9.82
2023-01-23T23:32:32.295Z,9.50
2023-01-23T23:36:34.133Z,9.95
2023-01-23T23:40:35.911Z,9.00
2023-01-23T23:44:37.597Z,9.38
2023-01-23T23:48:39.879Z,9.50
2023-01-23T23:52:41.565Z,9.65
2023-01-23T23:56:43.529Z,8.60
